createdAt,value
2022-09-04T00:02:35.160Z,47.05
2022-09-04T00:05:18.987Z,47.37
2022-09-04T00:08:03.184Z,47.47
2022-09-04T00:10:42.758Z,47.61
2022-09-04T00:13:19.791Z,47.58
2022-09-04T00:15:59.008Z,47.83
2022-09-04T00:18:36.525Z,47.88
2022-09-04T00:21:14.764Z,48.12
2022-09-04T00:23:53.156Z,48.19
2022-09-04T00:26:39.832Z,48.20
2022-09-04T00:29:18.903Z,48.37
2022-09-04T00:31:59.714Z,48.55
2022-09-04T00:34:43.348Z,48.88
2022-09-04T00:37:22.465Z,49.05
2022-09-04T00:39:59.718Z,49.12
2022-09-04T00:42:49.043Z,49.27
2022-09-04T00:45:35.221Z,49.22
2022-09-04T00:48:34.612Z,49.43
2022-09-04T00:51:30.955Z,49.61
2022-09-04T00:54:18.643Z,49.64
2022-09-04T00:57:18.666Z,49.79
2022-09-04T01:00:06.175Z,49.85
2022-09-04T01:02:56.806Z,49.91
2022-09-04T01:05:41.020Z,49.90
2022-09-04T01:08:25.009Z,50.19
2022-09-04T01:11:09.413Z,50.37
2022-09-04T01:13:44.669Z,50.43
2022-09-04T01:16:23.537Z,50.68
2022-09-04T01:19:00.484Z,50.65
2022-09-04T01:21:48.609Z,50.82
2022-09-04T01:24:40.272Z,50.99
2022-09-04T01:27:16.727Z,51.07
2022-09-04T01:29:57.992Z,50.97
2022-09-04T01:32:44.985Z,51.03
2022-09-04T01:35:29.146Z,51.18
2022-09-04T01:38:08.553Z,51.14
2022-09-04T01:40:51.035Z,51.26
2022-09-04T01:43:24.303Z,51.22
2022-09-04T01:46:16.431Z,51.32
2022-09-04T01:48:55.606Z,51.50
2022-09-04T01:51:35.397Z,51.57
2022-09-04T01:54:23.250Z,51.58
2022-09-04T01:57:09.716Z,51.72
2022-09-04T01:59:53.924Z,51.84
2022-09-04T02:02:30.596Z,52.01
2022-09-04T02:05:13.692Z,52.12
2022-09-04T02:07:50.310Z,52.33
2022-09-04T02:10:36.885Z,52.49
2022-09-04T02:13:22.503Z,52.46
2022-09-04T02:16:08.429Z,52.59
2022-09-04T02:18:51.530Z,52.61
2022-09-04T02:21:32.456Z,52.66
2022-09-04T02:24:15.995Z,52.86
2022-09-04T02:26:53.929Z,52.90
2022-09-04T02:29:35.086Z,53.08
2022-09-04T02:32:18.643Z,53.29
2022-09-04T02:34:57.147Z,53.24
2022-09-04T02:37:37.982Z,53.41
2022-09-04T02:40:18.723Z,53.45
2022-09-04T02:43:06.716Z,53.64
2022-09-04T02:45:46.394Z,53.77
2022-09-04T02:48:26.041Z,53.83
2022-09-04T02:51:14.783Z,53.90
2022-09-04T02:53:57.886Z,53.87
2022-09-04T02:56:41.133Z,54.03
2022-09-04T02:59:29.704Z,54.23
2022-09-04T03:02:04.106Z,54.41
2022-09-04T03:04:42.818Z,54.46
2022-09-04T03:07:21.947Z,54.38
2022-09-04T03:10:00.477Z,54.53
2022-09-04T03:12:40.010Z,54.64
2022-09-04T03:15:20.971Z,54.60
2022-09-04T03:18:01.945Z,54.63
2022-09-04T03:20:40.544Z,54.60
2022-09-04T03:23:17.080Z,54.78
2022-09-04T03:26:06.031Z,54.86
2022-09-04T03:28:52.783Z,54.90
2022-09-04T03:31:34.237Z,54.97
2022-09-04T03:34:19.877Z,55.04
2022-09-04T03:37:08.347Z,55.17
2022-09-04T03:39:51.536Z,55.19
2022-09-04T03:42:33.470Z,55.28
2022-09-04T03:45:17.390Z,55.45
2022-09-04T03:48:03.078Z,55.43
2022-09-04T03:50:43.391Z,55.88
2022-09-04T03:53:23.928Z,56.22
2022-09-04T03:56:18.801Z,56.48
2022-09-04T03:59:02.023Z,56.52
2022-09-04T04:01:48.573Z,56.84
2022-09-04T04:05:00.645Z,57.28
2022-09-04T04:07:41.791Z,57.54
2022-09-04T04:10:23.882Z,57.46
2022-09-04T04:13:26.465Z,57.63
2022-09-04T04:16:13.585Z,57.88
2022-09-04T04:19:13.713Z,58.15
2022-09-04T04:22:01.555Z,58.48
2022-09-04T04:24:48.218Z,58.66
2022-09-04T04:27:37.117Z,58.62
2022-09-04T04:30:15.194Z,58.39
2022-09-04T04:33:16.667Z,58.00
2022-09-04T04:35:57.491Z,57.51
2022-09-04T04:38:40.590Z,56.95
2022-09-04T04:41:56.430Z,56.04
2022-09-04T04:44:50.982Z,55.30
2022-09-04T04:47:35.426Z,54.61
2022-09-04T04:50:20.268Z,54.38
2022-09-04T04:53:05.410Z,53.98
2022-09-04T04:55:49.336Z,53.63
2022-09-04T04:58:42.121Z,53.52
2022-09-04T05:01:26.424Z,53.67
2022-09-04T05:04:09.300Z,53.58
2022-09-04T05:06:48.898Z,53.06
2022-09-04T05:09:30.838Z,52.15
2022-09-04T05:12:10.558Z,51.31
2022-09-04T05:14:53.388Z,50.32
2022-09-04T05:17:32.841Z,49.03
2022-09-04T05:20:24.772Z,47.91
2022-09-04T05:23:06.987Z,46.58
2022-09-04T05:25:46.995Z,45.53
2022-09-04T05:28:29.448Z,44.57
2022-09-04T05:31:14.135Z,43.76
2022-09-04T05:33:59.344Z,42.84
2022-09-04T05:36:42.764Z,41.91
2022-09-04T05:39:23.534Z,40.96
2022-09-04T05:42:13.489Z,40.26
2022-09-04T05:44:59.138Z,39.27
2022-09-04T05:47:43.368Z,38.67
2022-09-04T05:50:27.969Z,38.10
2022-09-04T05:53:27.919Z,37.69
2022-09-04T05:56:21.176Z,36.98
2022-09-04T05:59:04.290Z,36.14
2022-09-04T06:01:59.046Z,35.86
2022-09-04T06:04:50.760Z,35.04
2022-09-04T06:07:30.725Z,34.58
2022-09-04T06:10:11.647Z,34.33
2022-09-04T06:13:18.164Z,34.24
2022-09-04T06:15:57.683Z,33.64
2022-09-04T06:18:48.028Z,32.92
2022-09-04T06:21:46.986Z,32.43
2022-09-04T06:24:45.910Z,31.94
2022-09-04T06:27:36.247Z,30.94
2022-09-04T06:30:12.508Z,30.37
2022-09-04T06:33:06.214Z,30.11
2022-09-04T06:35:57.462Z,29.74
2022-09-04T06:38:57.212Z,29.56
2022-09-04T06:41:55.764Z,29.52
2022-09-04T06:44:40.992Z,29.34
2022-09-04T06:47:29.263Z,29.28
2022-09-04T06:50:17.274Z,29.25
2022-09-04T06:53:04.522Z,28.98
2022-09-04T06:55:45.780Z,28.35
2022-09-04T06:58:43.605Z,28.41
2022-09-04T07:01:21.186Z,27.76
2022-09-04T07:04:05.515Z,27.53
2022-09-04T07:06:48.976Z,26.88
2022-09-04T07:09:26.223Z,26.57
2022-09-04T07:12:21.966Z,26.40
2022-09-04T07:15:21.527Z,25.97
2022-09-04T07:18:04.188Z,26.03
2022-09-04T07:20:42.378Z,26.05
2022-09-04T07:23:32.674Z,25.66
2022-09-04T07:26:17.310Z,24.89
2022-09-04T07:29:00.962Z,24.86
2022-09-04T07:31:41.029Z,25.01
2022-09-04T07:34:20.295Z,24.77
2022-09-04T07:36:59.311Z,24.68
2022-09-04T07:39:41.307Z,23.81
2022-09-04T07:42:19.880Z,23.85
2022-09-04T07:45:03.131Z,23.68
2022-09-04T07:47:42.578Z,23.43
2022-09-04T07:50:19.597Z,23.56
2022-09-04T07:53:13.815Z,23.33
2022-09-04T07:55:47.957Z,23.09
2022-09-04T07:58:49.481Z,23.11
2022-09-04T08:01:43.477Z,22.97
2022-09-04T08:04:33.485Z,23.25
2022-09-04T08:07:11.518Z,23.55
2022-09-04T08:10:15.365Z,23.16
2022-09-04T08:13:06.133Z,23.16
2022-09-04T08:15:49.310Z,23.34
2022-09-04T08:18:53.316Z,23.06
2022-09-04T08:21:30.409Z,22.90
2022-09-04T08:24:41.335Z,23.14
2022-09-04T08:27:27.953Z,23.21
2022-09-04T08:30:09.910Z,23.52
2022-09-04T08:32:57.583Z,24.09
2022-09-04T08:35:34.279Z,23.67
2022-09-04T08:38:33.043Z,22.72
2022-09-04T08:41:29.537Z,22.95
2022-09-04T08:44:29.024Z,23.16
2022-09-04T08:47:24.535Z,23.43
2022-09-04T08:50:18.722Z,23.73
2022-09-04T08:53:18.181Z,23.12
2022-09-04T08:55:56.937Z,23.38
2022-09-04T08:59:10.524Z,24.08
2022-09-04T09:02:12.080Z,23.85
2022-09-04T09:05:11.175Z,24.13
2022-09-04T09:08:14.872Z,23.10
2022-09-04T09:11:14.566Z,23.11
2022-09-04T09:14:34.661Z,22.82
2022-09-04T09:17:17.065Z,23.03
2022-09-04T09:19:59.915Z,23.59
2022-09-04T09:23:09.459Z,23.91
2022-09-04T09:25:52.385Z,24.30
2022-09-04T09:29:13.385Z,24.12
2022-09-04T09:32:34.427Z,23.61
2022-09-04T09:36:02.741Z,23.97
2022-09-04T09:39:01.644Z,23.18
2022-09-04T09:41:59.610Z,23.23
2022-09-04T09:45:08.885Z,22.87
2022-09-04T09:48:20.049Z,22.52
2022-09-04T09:51:28.705Z,21.76
2022-09-04T09:54:48.622Z,21.03
2022-09-04T09:58:02.416Z,22.21
2022-09-04T10:00:46.621Z,22.42
2022-09-04T10:04:06.860Z,22.42
2022-09-04T10:07:22.726Z,22.51
2022-09-04T10:10:18.455Z,22.87
2022-09-04T10:13:19.907Z,23.20
2022-09-04T10:16:20.750Z,23.52
2022-09-04T10:19:39.409Z,22.11
2022-09-04T10:22:49.977Z,21.88
2022-09-04T10:25:48.729Z,23.09
2022-09-04T10:28:47.467Z,23.66
2022-09-04T10:31:48.888Z,24.53
2022-09-04T10:34:40.745Z,25.04
2022-09-04T10:37:25.550Z,25.94
2022-09-04T10:40:35.630Z,24.83
2022-09-04T10:43:32.134Z,24.85
2022-09-04T10:46:20.687Z,25.14
2022-09-04T10:49:28.180Z,25.09
2022-09-04T10:52:48.535Z,25.03
2022-09-04T10:55:27.315Z,25.27
2022-09-04T10:58:27.702Z,25.75
2022-09-04T11:01:23.015Z,26.05
2022-09-04T11:04:21.032Z,26.53
2022-09-04T11:07:33.112Z,25.99
2022-09-04T11:10:29.019Z,25.86
2022-09-04T11:13:25.494Z,25.72
2022-09-04T11:16:11.486Z,25.66
2022-09-04T11:19:11.161Z,25.52
2022-09-04T11:22:14.764Z,25.57
2022-09-04T11:25:27.974Z,25.71
2022-09-04T11:28:50.481Z,25.62
2022-09-04T11:31:47.337Z,25.71
2022-09-04T11:34:58.244Z,25.60
2022-09-04T11:37:57.926Z,25.79
2022-09-04T11:41:02.586Z,26.00
2022-09-04T11:43:56.589Z,26.12
2022-09-04T11:46:52.851Z,25.92
2022-09-04T11:49:57.421Z,25.67
2022-09-04T11:52:42.035Z,25.41
2022-09-04T11:55:35.460Z,25.81
2022-09-04T11:58:32.936Z,26.13
2022-09-04T12:01:23.501Z,27.33
2022-09-04T12:04:28.356Z,28.41
2022-09-04T12:07:12.479Z,29.61
2022-09-04T12:10:09.106Z,29.46
2022-09-04T12:13:15.659Z,29.80
2022-09-04T12:16:10.413Z,29.40
2022-09-04T12:19:28.043Z,29.30
2022-09-04T12:22:37.739Z,29.84
2022-09-04T12:25:39.678Z,30.12
2022-09-04T12:28:39.212Z,30.35
2022-09-04T12:31:29.142Z,30.07
2022-09-04T12:34:21.115Z,30.40
2022-09-04T12:37:19.944Z,30.69
2022-09-04T12:40:14.484Z,30.76
2022-09-04T12:42:53.104Z,30.84
2022-09-04T12:45:35.355Z,31.12
2022-09-04T12:48:15.492Z,31.42
2022-09-04T12:50:55.992Z,31.49
2022-09-04T12:53:52.033Z,31.49
2022-09-04T12:56:35.808Z,31.77
2022-09-04T12:59:29.536Z,31.98
2022-09-04T13:02:09.339Z,31.97
2022-09-04T13:04:55.812Z,32.36
2022-09-04T13:07:41.838Z,31.95
2022-09-04T13:10:23.954Z,31.42
2022-09-04T13:13:06.245Z,30.81
2022-09-04T13:15:58.134Z,30.53
2022-09-04T13:18:43.361Z,30.31
2022-09-04T13:21:27.678Z,30.44
2022-09-04T13:24:12.788Z,30.49
2022-09-04T13:27:00.730Z,30.23
2022-09-04T13:29:46.187Z,30.30
2022-09-04T13:32:36.065Z,30.16
2022-09-04T13:35:19.705Z,30.08
2022-09-04T13:38:16.270Z,30.39
2022-09-04T13:41:12.739Z,30.55
2022-09-04T13:44:04.371Z,30.97
2022-09-04T13:46:42.516Z,30.35
2022-09-04T13:49:19.098Z,29.91
2022-09-04T13:51:59.504Z,29.27
2022-09-04T13:54:35.222Z,29.86
2022-09-04T13:57:15.194Z,30.13
2022-09-04T13:59:55.611Z,29.98
2022-09-04T14:02:31.872Z,30.18
2022-09-04T14:05:10.805Z,29.76
2022-09-04T14:07:46.352Z,29.87
2022-09-04T14:10:23.070Z,29.36
2022-09-04T14:13:12.536Z,28.46
2022-09-04T14:16:06.823Z,28.15
2022-09-04T14:19:00.136Z,28.08
2022-09-04T14:22:06.914Z,28.14
2022-09-04T14:24:47.860Z,28.53
2022-09-04T14:27:30.800Z,29.22
2022-09-04T14:30:09.196Z,29.42
2022-09-04T14:32:58.017Z,29.99
2022-09-04T14:35:35.947Z,30.25
2022-09-04T14:38:27.927Z,30.10
2022-09-04T14:41:11.777Z,30.57
2022-09-04T14:44:03.909Z,30.50
2022-09-04T14:46:47.515Z,30.36
2022-09-04T14:49:29.391Z,30.26
2022-09-04T14:52:10.651Z,30.37
2022-09-04T14:54:46.784Z,30.78
2022-09-04T14:57:26.999Z,31.29
2022-09-04T15:00:10.419Z,31.09
2022-09-04T15:02:48.050Z,30.70
2022-09-04T15:05:24.454Z,30.80
2022-09-04T15:08:01.078Z,30.74
2022-09-04T15:10:47.099Z,30.66
2022-09-04T15:13:51.727Z,31.00
2022-09-04T15:16:30.593Z,31.12
2022-09-04T15:19:13.558Z,31.03
2022-09-04T15:21:56.854Z,31.42
2022-09-04T15:24:34.553Z,31.80
2022-09-04T15:27:16.507Z,31.94
2022-09-04T15:30:07.018Z,32.01
2022-09-04T15:32:42.763Z,31.98
2022-09-04T15:35:23.092Z,32.02
2022-09-04T15:38:08.456Z,32.19
2022-09-04T15:41:05.700Z,32.17
2022-09-04T15:43:47.990Z,31.86
2022-09-04T15:46:35.182Z,32.29
2022-09-04T15:49:23.000Z,32.60
2022-09-04T15:52:04.009Z,32.39
2022-09-04T15:54:57.259Z,32.75
2022-09-04T15:57:36.388Z,32.08
2022-09-04T16:00:15.164Z,32.45
2022-09-04T16:02:56.879Z,32.89
2022-09-04T16:05:41.650Z,33.30
2022-09-04T16:08:23.795Z,33.20
2022-09-04T16:11:04.377Z,33.60
2022-09-04T16:13:58.309Z,33.95
2022-09-04T16:16:35.823Z,33.73
2022-09-04T16:19:17.418Z,33.88
2022-09-04T16:22:01.826Z,34.11
2022-09-04T16:24:41.378Z,34.40
2022-09-04T16:27:17.557Z,34.65
2022-09-04T16:29:56.814Z,34.96
2022-09-04T16:32:31.870Z,35.00
2022-09-04T16:35:09.154Z,35.36
2022-09-04T16:37:46.857Z,35.57
2022-09-04T16:40:30.128Z,35.83
2022-09-04T16:43:09.810Z,35.85
2022-09-04T16:45:49.850Z,36.01
2022-09-04T16:48:34.837Z,36.00
2022-09-04T16:51:39.285Z,36.26
2022-09-04T16:54:12.025Z,36.19
2022-09-04T16:56:50.948Z,36.48
2022-09-04T16:59:30.055Z,36.73
2022-09-04T17:02:09.007Z,36.72
2022-09-04T17:04:45.343Z,37.11
2022-09-04T17:07:22.689Z,37.01
2022-09-04T17:10:03.788Z,36.95
2022-09-04T17:12:52.639Z,37.38
2022-09-04T17:15:32.053Z,37.29
2022-09-04T17:18:09.617Z,37.40
2022-09-04T17:21:58.326Z,37.39
2022-09-04T17:28:59.006Z,37.46
2022-09-04T17:29:11.751Z,37.56
2022-09-04T17:29:41.745Z,37.75
2022-09-04T17:32:35.466Z,38.11
2022-09-04T17:40:43.588Z,37.97
2022-09-04T17:40:49.542Z,38.05
2022-09-04T17:41:31.265Z,38.24
2022-09-04T17:44:29.491Z,38.28
2022-09-04T17:47:19.682Z,38.49
2022-09-04T17:49:54.324Z,38.48
2022-09-04T17:52:29.242Z,38.67
2022-09-04T17:55:06.388Z,38.87
2022-09-04T17:57:55.215Z,38.81
2022-09-04T18:00:32.986Z,39.16
2022-09-04T18:03:14.019Z,39.12
2022-09-04T18:05:53.492Z,39.40
2022-09-04T18:08:33.998Z,39.34
2022-09-04T18:11:14.655Z,39.43
2022-09-04T18:13:55.001Z,39.62
2022-09-04T18:16:54.472Z,39.76
2022-09-04T18:19:47.282Z,39.77
2022-09-04T18:22:33.225Z,39.86
2022-09-04T18:25:16.125Z,40.00
2022-09-04T18:28:11.756Z,39.93
2022-09-04T18:37:07.962Z,39.96
2022-09-04T18:37:21.503Z,40.35
2022-09-04T18:37:26.723Z,40.16
2022-09-04T18:40:08.794Z,40.32
2022-09-04T18:48:51.012Z,40.57
2022-09-04T18:50:29.502Z,40.60
2022-09-04T18:50:50.077Z,40.66
2022-09-04T18:51:51.121Z,40.79
2022-09-04T18:54:28.735Z,40.98
2022-09-04T18:57:06.419Z,41.02
2022-09-04T18:59:44.516Z,41.11
2022-09-04T19:02:21.968Z,41.07
2022-09-04T19:04:58.089Z,41.44
2022-09-04T19:07:34.494Z,41.22
2022-09-04T19:10:22.271Z,41.07
2022-09-04T19:13:03.955Z,41.21
2022-09-04T19:15:49.754Z,41.25
2022-09-04T19:18:31.431Z,41.25
2022-09-04T19:21:24.537Z,41.30
2022-09-04T19:24:04.087Z,41.46
2022-09-04T19:26:43.501Z,41.47
2022-09-04T19:29:21.189Z,41.53
2022-09-04T19:31:58.924Z,41.39
2022-09-04T19:34:39.237Z,41.40
2022-09-04T19:38:58.881Z,41.48
2022-09-04T19:46:07.277Z,41.47
2022-09-04T19:46:15.050Z,41.48
2022-09-04T19:46:32.331Z,41.54
2022-09-04T19:50:13.003Z,41.66
2022-09-04T19:53:36.656Z,41.60
2022-09-04T19:55:24.433Z,41.68
2022-09-04T19:58:08.680Z,41.82
2022-09-04T20:00:47.760Z,41.80
2022-09-04T20:03:29.629Z,41.93
2022-09-04T20:06:21.523Z,41.97
2022-09-04T20:09:02.833Z,42.11
2022-09-04T20:11:40.768Z,42.20
2022-09-04T20:14:22.944Z,42.23
2022-09-04T20:17:14.999Z,42.24
2022-09-04T20:19:50.638Z,42.35
2022-09-04T20:22:33.563Z,42.36
2022-09-04T20:25:32.069Z,42.41
2022-09-04T20:28:21.410Z,42.61
2022-09-04T20:31:33.295Z,42.71
2022-09-04T20:34:16.998Z,42.77
2022-09-04T20:36:52.720Z,42.77
2022-09-04T20:39:34.532Z,42.86
2022-09-04T20:42:11.081Z,42.82
2022-09-04T20:46:38.354Z,42.95
2022-09-04T20:52:41.029Z,42.86
2022-09-04T20:53:05.208Z,42.81
2022-09-04T20:53:51.839Z,42.82
2022-09-04T20:57:17.124Z,42.85
2022-09-04T21:03:15.015Z,42.96
2022-09-04T21:03:17.247Z,42.83
2022-09-04T21:06:04.297Z,42.72
2022-09-04T21:08:47.840Z,42.86
2022-09-04T21:11:40.848Z,42.87
2022-09-04T21:14:21.672Z,42.72
2022-09-04T21:17:29.084Z,42.68
2022-09-04T21:20:43.437Z,42.72
2022-09-04T21:24:10.219Z,42.63
2022-09-04T21:27:03.022Z,42.61
2022-09-04T21:29:57.846Z,42.61
2022-09-04T21:32:48.641Z,42.56
2022-09-04T21:35:26.206Z,42.40
2022-09-04T21:38:13.875Z,42.32
2022-09-04T21:41:06.958Z,42.10
2022-09-04T21:44:11.623Z,41.86
2022-09-04T21:47:08.441Z,41.87
2022-09-04T21:50:23.085Z,41.85
2022-09-04T21:53:19.234Z,41.87
2022-09-04T22:02:26.547Z,41.83
2022-09-04T22:02:36.669Z,41.93
2022-09-04T22:02:54.344Z,41.64
2022-09-04T22:05:41.022Z,41.60
2022-09-04T22:13:32.114Z,41.40
2022-09-04T22:13:38.394Z,41.38
2022-09-04T22:14:35.172Z,41.16
2022-09-04T22:17:24.556Z,41.13
2022-09-04T22:20:19.764Z,41.22
2022-09-04T22:23:20.035Z,41.31
2022-09-04T22:26:24.240Z,41.37
2022-09-04T22:29:22.059Z,41.30
2022-09-04T22:32:22.904Z,41.37
2022-09-04T22:35:35.971Z,41.42
2022-09-04T22:38:35.555Z,41.55
2022-09-04T22:41:33.370Z,41.51
2022-09-04T22:44:18.431Z,41.60
2022-09-04T22:47:25.684Z,41.49
2022-09-04T22:50:19.689Z,41.70
2022-09-04T22:53:15.121Z,41.65
2022-09-04T22:56:06.603Z,41.69
2022-09-04T22:59:27.600Z,41.73
2022-09-04T23:03:06.562Z,41.93
2022-09-04T23:06:11.309Z,41.95
2022-09-04T23:13:44.522Z,42.07
2022-09-04T23:14:02.409Z,42.12
2022-09-04T23:15:10.002Z,42.20
2022-09-04T23:18:31.293Z,42.36
2022-09-04T23:26:34.483Z,42.38
2022-09-04T23:26:44.139Z,42.59
2022-09-04T23:27:30.257Z,42.43
2022-09-04T23:30:25.629Z,42.37
2022-09-04T23:33:27.433Z,42.51
2022-09-04T23:36:37.357Z,42.40
2022-09-04T23:39:49.842Z,42.34
2022-09-04T23:43:07.419Z,42.34
2022-09-04T23:46:18.178Z,42.28
2022-09-04T23:49:36.552Z,42.35
2022-09-04T23:52:50.279Z,42.51
2022-09-04T23:55:53.377Z,42.72
2022-09-04T23:59:22.496Z,42.53
